Time;durP1;ratioP1;P1;durP2;ratioP2;P2;SDS_P1;SDS_P2;PMS_P1;PMS_P2;Temp;Humidity;BMP_temperature;BMP_pressure;BME280_temperature;BME280_humidity;BME280_pressure;Samples;Min_cycle;Max_cycle;Signal;HPM_P1;HPM_P2
2022/12/19 00:01:25;;;;;;;34.50;19.90;;;-0.60;99.90;;;;;;4916929;28;20408;-75
2022/12/19 00:03:59;;;;;;;37.92;21.05;;;-0.50;99.90;;;;;;4924587;28;21049;-73
2022/12/19 00:06:27;;;;;;;40.35;21.52;;;-0.50;99.90;;;;;;4925553;28;20212;-74
2022/12/19 00:08:54;;;;;;;38.78;21.35;;;-0.40;99.90;;;;;;4923156;28;20035;-73
2022/12/19 00:11:21;;;;;;;41.55;21.73;;;-0.40;99.90;;;;;;4923529;28;20494;-73
2022/12/19 00:13:47;;;;;;;41.10;22.63;;;-0.40;99.90;;;;;;4913872;29;20416;-72
2022/12/19 00:16:22;;;;;;;42.03;23.70;;;-0.40;99.90;;;;;;4926558;28;20038;-73
2022/12/19 00:18:49;;;;;;;43.97;24.05;;;-0.30;99.90;;;;;;4925930;28;21739;-74
2022/12/19 00:21:17;;;;;;;45.95;25.50;;;-0.20;99.90;;;;;;4925268;28;20028;-72
2022/12/19 00:23:43;;;;;;;43.80;25.30;;;-0.10;99.90;;;;;;4932965;28;20038;-73
2022/12/19 00:26:12;;;;;;;49.67;28.55;;;-0.10;99.90;;;;;;4934807;28;20039;-71
2022/12/19 00:28:38;;;;;;;53.05;29.73;;;-0.10;99.90;;;;;;4931738;28;20044;-73
2022/12/19 00:31:04;;;;;;;47.92;28.63;;;-0.10;99.90;;;;;;4931593;28;20027;-73
2022/12/19 00:33:30;;;;;;;48.35;26.70;;;-0.10;99.90;;;;;;4930941;28;20050;-73
2022/12/19 00:35:57;;;;;;;51.17;28.55;;;0.00;99.90;;;;;;4932348;28;20035;-73
2022/12/19 00:38:23;;;;;;;48.10;26.52;;;0.00;99.90;;;;;;4925150;28;20110;-75
2022/12/19 00:40:48;;;;;;;46.53;25.73;;;0.00;99.90;;;;;;4935871;28;20097;-73
2022/12/19 00:43:14;;;;;;;44.20;23.35;;;0.00;99.90;;;;;;4932943;28;20394;-70
2022/12/19 00:45:40;;;;;;;46.85;24.90;;;-0.10;99.90;;;;;;4930391;28;20051;-70
2022/12/19 00:48:05;;;;;;;47.53;24.40;;;-0.10;99.90;;;;;;4934123;28;20830;-71
2022/12/19 00:50:31;;;;;;;46.67;24.88;;;0.00;99.90;;;;;;4928682;28;20035;-71
2022/12/19 00:52:56;;;;;;;45.40;23.67;;;-0.10;99.90;;;;;;4904130;28;20043;-72
2022/12/19 00:55:22;;;;;;;48.42;25.50;;;0.00;99.90;;;;;;4915282;28;20031;-71
2022/12/19 00:57:48;;;;;;;45.92;24.70;;;0.00;99.90;;;;;;4921104;28;20187;-71
2022/12/19 01:00:15;;;;;;;50.03;26.08;;;0.10;99.90;;;;;;4919474;28;20032;-71
2022/12/19 01:02:40;;;;;;;49.30;25.85;;;0.10;99.90;;;;;;4923713;28;20084;-70
2022/12/19 01:05:06;;;;;;;49.35;25.02;;;0.10;99.90;;;;;;4930042;28;20371;-71
2022/12/19 01:07:32;;;;;;;50.90;25.52;;;0.10;99.90;;;;;;4927856;28;20277;-70
2022/12/19 01:09:57;;;;;;;55.42;29.15;;;0.20;99.90;;;;;;4926141;28;20062;-71
2022/12/19 01:15:08;;;;;;;57.05;28.25;;;0.20;99.90;;;;;;4924062;28;20079;-71
2022/12/19 01:17:34;;;;;;;52.33;26.77;;;0.20;99.90;;;;;;4919617;28;20042;-71
2022/12/19 01:20:00;;;;;;;55.83;28.15;;;0.20;99.90;;;;;;4923200;28;20046;-71
2022/12/19 01:22:25;;;;;;;50.53;27.58;;;0.20;99.90;;;;;;4921335;28;20081;-71
2022/12/19 01:24:51;;;;;;;51.72;29.13;;;0.20;99.90;;;;;;4921435;28;20430;-71
2022/12/19 01:27:16;;;;;;;57.40;29.92;;;0.20;99.90;;;;;;4923225;28;20043;-71
2022/12/19 01:29:42;;;;;;;56.25;30.23;;;0.30;99.90;;;;;;4922274;28;20047;-71
2022/12/19 01:32:08;;;;;;;53.13;28.60;;;0.30;99.90;;;;;;4921328;28;20270;-71
2022/12/19 01:34:33;;;;;;;52.15;27.35;;;0.30;99.90;;;;;;4923385;28;20591;-71
2022/12/19 01:36:59;;;;;;;57.25;28.75;;;0.40;99.90;;;;;;4915986;28;20047;-71
2022/12/19 01:39:24;;;;;;;52.55;26.50;;;0.40;99.90;;;;;;4928400;28;20031;-71
2022/12/19 01:41:50;;;;;;;50.42;27.55;;;0.30;99.90;;;;;;4928240;28;20469;-72
2022/12/19 01:44:15;;;;;;;50.83;26.02;;;0.30;99.90;;;;;;4925097;28;20209;-72
2022/12/19 01:46:47;;;;;;;49.05;25.48;;;0.30;99.90;;;;;;4927119;28;20051;-71
2022/12/19 01:49:20;;;;;;;;;;;0.40;99.90;;;;;;4927898;28;20250;-71
2022/12/19 01:51:48;;;;;;;49.13;24.45;;;0.40;99.90;;;;;;4926923;28;20427;-71
2022/12/19 01:54:18;;;;;;;45.10;24.05;;;0.40;99.90;;;;;;4919595;28;20499;-71
2022/12/19 01:56:48;;;;;;;47.47;26.70;;;0.20;99.90;;;;;;4926974;28;20054;-71
2022/12/19 01:59:21;;;;;;;46.42;23.98;;;0.20;99.90;;;;;;4925400;28;20031;-71
2022/12/19 02:01:47;;;;;;;47.45;24.35;;;0.20;99.90;;;;;;4926144;28;20044;-71
2022/12/19 02:04:13;;;;;;;47.17;24.60;;;0.30;99.90;;;;;;4927229;28;20102;-71
2022/12/19 02:06:44;;;;;;;47.90;25.02;;;0.40;99.90;;;;;;4924367;28;20531;-71
2022/12/19 02:09:11;;;;;;;48.58;25.65;;;0.30;99.90;;;;;;4928057;28;20045;-71
2022/12/19 02:11:37;;;;;;;45.50;24.77;;;0.30;99.90;;;;;;4925514;28;20051;-71
2022/12/19 02:14:02;;;;;;;45.80;24.65;;;0.30;99.90;;;;;;4910681;28;20421;-71
2022/12/19 02:16:43;;;;;;;50.13;25.48;;;0.30;99.90;;;;;;4924613;28;20114;-71
2022/12/19 02:19:17;;;;;;;47.63;25.90;;;0.30;99.90;;;;;;4927661;28;20043;-71
2022/12/19 02:22:05;;;;;;;48.47;25.13;;;0.40;99.90;;;;;;4916798;28;20401;-71
2022/12/19 02:25:00;;;;;;;44.85;24.35;;;0.40;99.90;;;;;;4925365;28;20798;-71
2022/12/19 02:28:06;;;;;;;40.65;22.50;;;0.50;99.90;;;;;;4924822;28;20896;-71
2022/12/19 02:31:03;;;;;;;46.38;24.92;;;0.50;99.90;;;;;;4892623;29;20727;-71
2022/12/19 02:34:24;;;;;;;44.08;24.00;;;0.50;99.90;;;;;;4923264;28;20055;-71
2022/12/19 02:37:00;;;;;;;50.22;24.42;;;0.50;99.90;;;;;;4889103;29;20059;-70
2022/12/19 02:39:40;;;;;;;45.50;24.85;;;0.50;99.90;;;;;;4882748;29;20048;-69
2022/12/19 02:42:10;;;;;;;44.13;22.95;;;0.60;99.90;;;;;;4915801;28;20535;-69
2022/12/19 02:44:47;;;;;;;42.85;23.48;;;0.60;99.90;;;;;;4931724;28;20106;-69
2022/12/19 02:47:14;;;;;;;50.15;25.55;;;0.60;99.90;;;;;;4927976;28;20056;-69
2022/12/19 02:49:40;;;;;;;47.30;24.02;;;0.60;99.90;;;;;;4937214;28;20036;-69
2022/12/19 02:52:09;;;;;;;47.67;23.88;;;0.60;99.90;;;;;;4937964;28;20724;-69
2022/12/19 02:54:36;;;;;;;51.67;25.52;;;0.70;99.90;;;;;;4934834;28;20368;-70
2022/12/19 02:57:25;;;;;;;48.13;25.02;;;0.70;99.90;;;;;;4934217;28;20067;-69
2022/12/19 03:00:07;;;;;;;48.60;24.30;;;0.80;99.90;;;;;;4933364;28;20050;-69
2022/12/19 03:03:11;;;;;;;51.78;25.20;;;0.70;99.90;;;;;;4933230;28;20460;-69
2022/12/19 03:05:53;;;;;;;47.50;23.35;;;0.70;99.90;;;;;;4931123;28;20057;-69
2022/12/19 03:08:40;;;;;;;47.28;24.50;;;0.80;99.90;;;;;;4933947;28;20820;-69
2022/12/19 03:11:13;;;;;;;50.55;25.85;;;0.80;99.90;;;;;;4933849;28;20050;-69
2022/12/19 03:14:13;;;;;;;50.80;25.95;;;0.80;99.90;;;;;;4933621;28;20061;-69
2022/12/19 03:16:39;;;;;;;50.55;26.35;;;0.90;99.90;;;;;;4928903;28;20097;-69
2022/12/19 03:19:11;;;;;;;58.33;26.27;;;1.00;99.90;;;;;;4931975;28;20028;-69
2022/12/19 03:21:42;;;;;;;54.28;26.42;;;1.00;99.90;;;;;;4932160;28;20121;-69
2022/12/19 03:24:10;;;;;;;54.53;26.38;;;1.00;99.90;;;;;;4927649;28;20066;-69
2022/12/19 03:26:48;;;;;;;51.70;25.27;;;1.00;99.90;;;;;;4931019;28;20035;-69
2022/12/19 03:29:16;;;;;;;59.58;28.08;;;1.00;99.90;;;;;;4929066;28;20114;-69
2022/12/19 03:31:43;;;;;;;51.08;26.38;;;1.00;99.90;;;;;;4934212;28;20142;-68
2022/12/19 03:34:27;;;;;;;54.42;27.33;;;1.00;99.90;;;;;;4931992;28;20102;-69
2022/12/19 03:37:00;;;;;;;56.90;25.70;;;1.00;99.90;;;;;;4927102;28;20139;-70
2022/12/19 03:39:27;;;;;;;56.70;27.80;;;1.00;99.90;;;;;;4931493;28;20050;-69
2022/12/19 03:44:41;;;;;;;52.03;26.90;;;1.00;99.90;;;;;;4930844;28;20781;-69
2022/12/19 03:47:30;;;;;;;53.83;26.83;;;1.00;99.90;;;;;;4928401;28;20032;-69
2022/12/19 03:49:56;;;;;;;53.28;26.52;;;1.00;99.90;;;;;;4925923;28;20047;-69
2022/12/19 03:52:45;;;;;;;55.97;26.08;;;1.00;99.90;;;;;;4926631;28;20257;-69
2022/12/19 03:55:36;;;;;;;54.25;25.10;;;1.10;99.90;;;;;;4922721;28;20043;-69
2022/12/19 03:58:09;;;;;;;53.45;26.83;;;1.00;99.90;;;;;;4931365;28;20047;-69
2022/12/19 04:00:36;;;;;;;55.35;26.98;;;1.00;99.90;;;;;;4933135;28;20511;-69
2022/12/19 04:03:04;;;;;;;47.90;25.92;;;0.90;99.90;;;;;;4937609;28;20069;-69
2022/12/19 04:05:30;;;;;;;53.47;26.42;;;0.90;99.90;;;;;;4934400;28;21732;-69
2022/12/19 04:08:01;;;;;;;52.25;27.10;;;0.90;99.90;;;;;;4931619;28;20582;-69
2022/12/19 04:10:28;;;;;;;55.70;27.30;;;0.90;99.90;;;;;;4933047;28;20035;-68
2022/12/19 04:13:04;;;;;;;57.00;28.13;;;0.90;99.90;;;;;;4938733;28;20039;-69
2022/12/19 04:16:26;;;;;;;55.85;28.08;;;0.90;99.90;;;;;;4932525;28;20031;-70
2022/12/19 04:18:58;;;;;;;52.97;25.85;;;0.90;99.90;;;;;;4874357;29;20105;-70
2022/12/19 04:21:31;;;;;;;57.00;27.42;;;1.00;99.90;;;;;;4920075;28;20039;-69
2022/12/19 04:24:13;;;;;;;59.83;27.83;;;1.00;99.90;;;;;;4932159;28;20050;-69
2022/12/19 04:26:41;;;;;;;53.63;27.63;;;1.10;99.90;;;;;;4937034;28;20503;-70
2022/12/19 04:29:07;;;;;;;60.17;28.98;;;1.10;99.90;;;;;;4931965;28;20484;-70
2022/12/19 04:31:34;;;;;;;59.08;28.02;;;1.10;99.90;;;;;;4926468;28;20034;-70
2022/12/19 04:34:00;;;;;;;63.83;29.35;;;1.10;99.90;;;;;;4930080;28;20043;-69
2022/12/19 04:36:26;;;;;;;56.30;28.48;;;1.20;99.90;;;;;;4930428;28;20167;-69
2022/12/19 04:38:52;;;;;;;59.67;29.23;;;1.10;99.90;;;;;;4928485;28;20043;-69
2022/12/19 04:41:18;;;;;;;55.60;28.25;;;1.10;99.90;;;;;;4930663;28;20389;-69
2022/12/19 04:43:45;;;;;;;61.33;28.75;;;1.10;99.90;;;;;;4927222;28;20527;-69
2022/12/19 04:46:11;;;;;;;63.45;28.67;;;1.10;99.90;;;;;;4912299;28;20567;-69
2022/12/19 04:48:36;;;;;;;57.05;27.67;;;1.10;99.90;;;;;;4929870;28;20039;-69
2022/12/19 04:51:02;;;;;;;62.10;29.55;;;1.20;99.90;;;;;;4927228;28;20054;-69
2022/12/19 04:53:29;;;;;;;55.15;28.77;;;1.20;99.90;;;;;;4929712;28;20057;-69
2022/12/19 04:56:05;;;;;;;62.55;28.10;;;1.20;99.90;;;;;;4911647;28;20047;-69
2022/12/19 04:58:31;;;;;;;58.80;27.23;;;1.20;99.90;;;;;;4930517;28;20390;-69
2022/12/19 05:01:05;;;;;;;59.90;29.02;;;1.20;99.90;;;;;;4925298;28;20075;-71
2022/12/19 05:03:32;;;;;;;56.88;28.30;;;1.30;99.90;;;;;;4929781;28;20512;-71
2022/12/19 05:06:09;;;;;;;56.03;27.98;;;1.30;99.90;;;;;;4934093;28;20047;-71
2022/12/19 05:08:35;;;;;;;61.90;28.40;;;1.30;99.90;;;;;;4936426;28;20102;-71
2022/12/19 05:11:02;;;;;;;61.22;27.67;;;1.20;99.90;;;;;;4914221;28;20134;-71
2022/12/19 05:13:29;;;;;;;53.83;26.60;;;1.20;99.90;;;;;;4927477;28;20058;-71
2022/12/19 05:15:59;;;;;;;51.33;28.15;;;1.20;99.90;;;;;;4924752;28;20038;-71
2022/12/19 05:18:25;;;;;;;62.40;28.85;;;1.30;99.90;;;;;;4927345;28;20039;-71
2022/12/19 05:20:51;;;;;;;59.30;27.85;;;1.20;99.90;;;;;;4929224;28;20039;-71
2022/12/19 05:23:17;;;;;;;58.22;28.00;;;1.30;99.90;;;;;;4929933;28;20098;-71
2022/12/19 05:25:43;;;;;;;82.97;39.15;;;1.20;99.90;;;;;;4931934;28;20048;-71
2022/12/19 05:28:09;;;;;;;82.60;41.58;;;1.30;99.90;;;;;;4928794;28;20031;-71
2022/12/19 05:30:35;;;;;;;74.95;36.58;;;1.30;99.90;;;;;;4929286;28;20514;-70
2022/12/19 05:33:00;;;;;;;59.58;31.08;;;1.30;99.90;;;;;;4929571;28;20158;-70
2022/12/19 05:35:26;;;;;;;57.00;28.92;;;1.20;99.90;;;;;;4927685;28;20125;-71
2022/12/19 05:37:52;;;;;;;56.55;28.88;;;1.20;99.90;;;;;;4931114;28;20086;-71
2022/12/19 05:40:17;;;;;;;58.95;30.45;;;1.30;99.90;;;;;;4932764;28;20479;-71
2022/12/19 05:42:43;;;;;;;64.15;30.77;;;1.30;99.90;;;;;;4923109;28;20095;-71
2022/12/19 05:45:09;;;;;;;72.80;34.97;;;1.30;99.90;;;;;;4922901;28;21527;-72
2022/12/19 05:47:34;;;;;;;60.83;30.63;;;1.30;99.90;;;;;;4924817;28;20126;-71
2022/12/19 05:50:00;;;;;;;65.57;32.70;;;1.30;99.90;;;;;;4925995;28;20077;-70
2022/12/19 05:52:26;;;;;;;59.40;31.05;;;1.30;99.90;;;;;;4928238;28;20933;-70
2022/12/19 05:54:52;;;;;;;55.40;29.08;;;1.30;99.90;;;;;;4927556;28;20039;-71
2022/12/19 05:57:17;;;;;;;57.55;29.60;;;1.30;99.90;;;;;;4923974;28;20111;-71
2022/12/19 05:59:43;;;;;;;56.20;28.60;;;1.30;99.90;;;;;;4930581;28;20534;-72
2022/12/19 06:02:09;;;;;;;61.67;29.35;;;1.30;99.90;;;;;;4921699;28;20589;-71
2022/12/19 06:04:34;;;;;;;56.53;27.92;;;1.20;99.90;;;;;;4921905;28;20563;-71
2022/12/19 06:07:00;;;;;;;53.60;26.75;;;1.20;99.90;;;;;;4921754;28;20805;-71
2022/12/19 06:09:26;;;;;;;55.10;27.10;;;1.30;99.90;;;;;;4922922;28;20035;-71
2022/12/19 06:11:51;;;;;;;59.88;29.70;;;1.20;99.90;;;;;;4913702;28;20059;-72
2022/12/19 06:14:17;;;;;;;64.05;30.25;;;1.20;99.90;;;;;;4912515;28;21167;-72
2022/12/19 06:16:42;;;;;;;56.33;27.05;;;1.20;99.90;;;;;;4907173;28;20023;-70
2022/12/19 06:19:08;;;;;;;54.25;26.95;;;1.20;99.90;;;;;;4912887;28;20035;-70
2022/12/19 06:21:34;;;;;;;56.13;26.80;;;1.20;99.90;;;;;;4910543;28;20071;-70
2022/12/19 06:23:59;;;;;;;58.20;27.08;;;1.40;99.90;;;;;;4912531;28;20054;-70
2022/12/19 06:26:25;;;;;;;55.65;26.58;;;1.40;99.90;;;;;;4906460;28;20046;-72
2022/12/19 06:28:53;;;;;;;53.95;26.45;;;1.40;99.90;;;;;;4915017;28;20599;-70
2022/12/19 06:31:21;;;;;;;56.63;26.02;;;1.40;99.90;;;;;;4914248;28;20099;-70
2022/12/19 06:33:47;;;;;;;50.85;26.63;;;1.40;99.90;;;;;;4915337;28;20183;-70
2022/12/19 06:36:22;;;;;;;49.38;25.25;;;1.40;99.90;;;;;;4915419;28;20252;-71
2022/12/19 06:38:49;;;;;;;60.25;31.58;;;1.40;99.90;;;;;;4917548;28;20765;-71
2022/12/19 06:44:03;;;;;;;51.50;26.67;;;1.30;99.90;;;;;;4918501;28;20039;-71
2022/12/19 06:46:29;;;;;;;55.28;26.48;;;1.30;99.90;;;;;;4918183;28;20103;-71
2022/12/19 06:48:55;;;;;;;53.67;26.88;;;1.40;99.90;;;;;;4934446;28;20036;-71
2022/12/19 06:51:21;;;;;;;60.38;30.73;;;1.40;99.90;;;;;;4934180;28;20039;-71
2022/12/19 06:53:46;;;;;;;54.45;28.00;;;1.50;99.90;;;;;;4930363;28;20094;-71
2022/12/19 06:56:14;;;;;;;61.72;28.45;;;1.60;99.90;;;;;;4931156;28;20075;-71
2022/12/19 06:58:40;;;;;;;57.53;29.00;;;1.60;99.90;;;;;;4927911;28;20134;-71
2022/12/19 07:01:05;;;;;;;54.90;28.95;;;1.60;99.90;;;;;;4925463;28;20130;-71
2022/12/19 07:03:37;;;;;;;56.83;29.45;;;1.50;99.90;;;;;;4931822;28;20059;-70
2022/12/19 07:06:04;;;;;;;56.05;30.00;;;1.50;99.90;;;;;;4920944;28;20042;-71
2022/12/19 07:08:30;;;;;;;58.08;29.20;;;1.50;99.90;;;;;;4919526;28;20039;-71
2022/12/19 07:10:56;;;;;;;58.70;29.85;;;1.50;99.90;;;;;;4927962;28;20036;-70
2022/12/19 07:13:22;;;;;;;58.65;31.73;;;1.50;99.90;;;;;;4931592;28;20543;-71
2022/12/19 07:15:48;;;;;;;55.50;29.80;;;1.50;99.90;;;;;;4922665;28;20048;-71
2022/12/19 07:18:14;;;;;;;58.88;29.90;;;1.60;99.90;;;;;;4930365;28;20039;-70
2022/12/19 07:20:41;;;;;;;60.92;29.90;;;1.60;99.90;;;;;;4928315;28;20033;-71
2022/12/19 07:23:10;;;;;;;59.45;31.40;;;1.70;99.90;;;;;;4927996;28;20167;-70
2022/12/19 07:25:38;;;;;;;64.32;32.85;;;1.70;99.90;;;;;;4926991;28;20035;-71
2022/12/19 07:28:04;;;;;;;56.58;28.83;;;1.80;99.90;;;;;;4929255;28;20030;-71
2022/12/19 07:30:30;;;;;;;54.30;27.05;;;1.80;99.90;;;;;;4929310;28;20123;-71
2022/12/19 07:32:55;;;;;;;51.50;26.70;;;1.70;99.90;;;;;;4924846;28;20039;-71
2022/12/19 07:35:22;;;;;;;51.13;25.80;;;1.70;99.90;;;;;;4937532;28;20039;-71
2022/12/19 07:37:48;;;;;;;51.75;25.90;;;1.70;99.90;;;;;;4940911;28;20168;-70
2022/12/19 07:40:15;;;;;;;47.17;24.05;;;1.70;99.90;;;;;;4928704;28;20039;-71
2022/12/19 07:42:40;;;;;;;44.65;23.02;;;1.70;99.90;;;;;;4921008;28;20055;-71
2022/12/19 07:45:06;;;;;;;41.38;22.88;;;1.70;99.90;;;;;;4928147;28;20051;-71
2022/12/19 07:47:32;;;;;;;41.88;23.73;;;1.70;99.90;;;;;;4923706;28;20063;-71
2022/12/19 07:49:58;;;;;;;42.00;23.23;;;1.70;99.90;;;;;;4933429;28;20110;-71
2022/12/19 07:52:24;;;;;;;41.88;22.42;;;1.70;99.90;;;;;;4929268;28;20051;-70
2022/12/19 07:54:50;;;;;;;42.83;22.40;;;1.70;99.90;;;;;;4931015;28;20043;-71
2022/12/19 07:57:16;;;;;;;40.70;21.15;;;1.70;99.90;;;;;;4907324;28;20120;-71
2022/12/19 07:59:42;;;;;;;43.80;22.10;;;1.70;99.90;;;;;;4924914;28;20107;-70
2022/12/19 08:02:08;;;;;;;43.47;23.35;;;1.70;99.90;;;;;;4919405;28;20975;-70
2022/12/19 08:04:34;;;;;;;40.60;22.27;;;1.70;99.90;;;;;;4919630;28;20042;-71
2022/12/19 08:07:01;;;;;;;40.13;20.85;;;1.80;99.90;;;;;;4938357;28;20035;-71
2022/12/19 08:09:27;;;;;;;41.60;23.55;;;1.80;99.90;;;;;;4923346;28;20495;-71
2022/12/19 08:11:53;;;;;;;41.92;23.85;;;1.80;99.90;;;;;;4934096;28;20040;-71
2022/12/19 08:14:19;;;;;;;35.15;19.10;;;1.80;99.90;;;;;;4940547;28;20087;-71
2022/12/19 08:16:45;;;;;;;43.08;22.60;;;1.80;99.90;;;;;;4941477;28;20587;-71
2022/12/19 08:19:11;;;;;;;34.55;20.88;;;1.70;99.90;;;;;;4943243;28;20035;-71
2022/12/19 08:21:36;;;;;;;38.53;21.48;;;1.70;99.90;;;;;;4942176;28;20031;-70
2022/12/19 08:24:02;;;;;;;35.15;20.73;;;1.70;99.90;;;;;;4933711;28;20035;-71
2022/12/19 08:26:28;;;;;;;31.83;19.77;;;1.70;99.90;;;;;;4935206;28;20027;-71
2022/12/19 08:28:55;;;;;;;32.85;17.92;;;1.80;99.90;;;;;;4934674;28;20043;-71
2022/12/19 08:31:23;;;;;;;33.47;19.00;;;1.80;99.90;;;;;;4935899;28;20028;-71
2022/12/19 08:33:49;;;;;;;30.05;16.88;;;1.80;99.90;;;;;;4944999;28;20404;-71
2022/12/19 08:36:19;;;;;;;31.95;18.52;;;1.70;99.90;;;;;;4938068;28;20035;-71
2022/12/19 08:38:45;;;;;;;33.58;18.10;;;1.60;99.90;;;;;;4937758;28;20060;-71
2022/12/19 08:41:12;;;;;;;34.38;18.92;;;1.60;99.90;;;;;;4936251;28;20109;-71
2022/12/19 08:43:38;;;;;;;33.55;19.08;;;1.70;99.90;;;;;;4919224;28;20131;-70
2022/12/19 08:46:04;;;;;;;33.30;18.65;;;1.70;99.90;;;;;;4918193;28;20044;-71
2022/12/19 08:48:31;;;;;;;38.95;19.45;;;1.70;99.90;;;;;;4916835;28;20619;-70
2022/12/19 08:51:00;;;;;;;35.72;19.75;;;1.70;99.90;;;;;;4924505;28;20139;-70
2022/12/19 08:53:28;;;;;;;31.85;17.52;;;1.70;99.90;;;;;;4936808;28;20051;-69
2022/12/19 08:55:58;;;;;;;34.08;17.65;;;1.70;99.90;;;;;;4940341;28;20039;-69
2022/12/19 08:58:25;;;;;;;28.27;17.13;;;1.70;99.90;;;;;;4923535;29;20051;-69
2022/12/19 09:00:52;;;;;;;35.20;20.13;;;1.80;99.90;;;;;;4925183;28;20051;-70
2022/12/19 09:03:21;;;;;;;30.17;18.42;;;1.80;99.90;;;;;;4923506;28;20062;-70
2022/12/19 09:06:03;;;;;;;35.35;20.58;;;1.80;99.90;;;;;;4928262;28;20039;-70
2022/12/19 09:08:29;;;;;;;30.27;17.88;;;1.80;99.90;;;;;;4912567;28;20107;-70
2022/12/19 09:11:18;;;;;;;40.45;18.25;;;1.70;99.90;;;;;;4923114;28;20050;-70
2022/12/19 09:13:45;;;;;;;27.23;15.93;;;1.70;99.90;;;;;;4935355;28;20055;-70
2022/12/19 09:16:20;;;;;;;25.40;15.10;;;1.80;99.90;;;;;;4938731;28;20031;-70
2022/12/19 09:18:48;;;;;;;27.17;15.02;;;1.80;99.90;;;;;;4946122;28;20587;-70
2022/12/19 09:21:15;;;;;;;27.48;14.75;;;1.60;99.90;;;;;;4935660;28;20043;-70
2022/12/19 09:23:41;;;;;;;32.08;18.60;;;1.60;99.90;;;;;;4938506;28;20527;-69
2022/12/19 09:26:12;;;;;;;42.05;17.20;;;1.60;99.90;;;;;;4940466;28;20404;-70
2022/12/19 09:28:39;;;;;;;31.85;18.00;;;1.70;99.90;;;;;;4939424;28;20153;-69
2022/12/19 09:31:11;;;;;;;26.00;15.15;;;1.70;99.90;;;;;;4931770;28;20546;-69
2022/12/19 09:33:37;;;;;;;27.52;14.93;;;1.60;99.90;;;;;;4919746;28;20515;-69
2022/12/19 09:36:04;;;;;;;28.33;17.45;;;1.60;99.90;;;;;;4932429;28;20134;-70
2022/12/19 09:38:31;;;;;;;33.15;17.98;;;1.60;99.90;;;;;;4936742;28;20047;-70
2022/12/19 09:41:21;;;;;;;30.80;17.17;;;1.50;99.90;;;;;;4934166;28;20135;-70
2022/12/19 09:43:52;;;;;;;30.30;15.93;;;1.60;99.90;;;;;;4941876;28;20039;-70
2022/12/19 09:46:26;;;;;;;35.08;18.02;;;1.60;99.90;;;;;;4931928;28;20035;-70
2022/12/19 09:48:56;;;;;;;28.88;16.20;;;1.60;99.90;;;;;;4936835;28;20043;-70
2022/12/19 09:51:36;;;;;;;33.35;18.52;;;1.60;99.90;;;;;;4942782;28;20633;-70
2022/12/19 09:54:10;;;;;;;50.88;25.02;;;1.60;99.90;;;;;;4929246;28;20074;-70
2022/12/19 09:56:41;;;;;;;64.10;29.88;;;1.60;99.90;;;;;;4918579;28;20063;-70
2022/12/19 09:59:31;;;;;;;54.10;24.35;;;1.70;99.90;;;;;;4932173;28;20105;-71
2022/12/19 10:02:07;;;;;;;34.70;18.00;;;1.70;99.90;;;;;;4930834;28;20051;-71
2022/12/19 10:04:35;;;;;;;27.77;16.42;;;1.80;99.90;;;;;;4932453;28;20067;-71
2022/12/19 10:07:01;;;;;;;29.67;17.13;;;1.70;99.90;;;;;;4933509;28;20377;-71
2022/12/19 10:09:33;;;;;;;31.00;19.48;;;1.60;99.90;;;;;;4934103;28;20035;-71
2022/12/19 10:12:24;;;;;;;31.92;18.98;;;1.50;99.90;;;;;;4928523;28;20042;-71
2022/12/19 10:15:07;;;;;;;39.22;21.08;;;1.40;99.90;;;;;;4933576;28;20383;-71
2022/12/19 10:17:53;;;;;;;32.13;17.95;;;1.40;99.90;;;;;;4931278;28;20048;-71
2022/12/19 10:20:37;;;;;;;25.83;14.82;;;1.40;99.90;;;;;;4936153;28;20401;-71
2022/12/19 10:23:21;;;;;;;28.35;16.60;;;1.40;99.90;;;;;;4932292;28;20117;-71
2022/12/19 10:25:53;;;;;;;29.90;17.42;;;1.30;99.90;;;;;;4933006;28;20035;-71
2022/12/19 10:28:19;;;;;;;;;;;1.30;99.90;;;;;;4932482;28;20039;-71
2022/12/19 10:30:57;;;;;;;30.83;16.92;;;1.30;99.90;;;;;;4933331;28;19965;-70
2022/12/19 10:33:37;;;;;;;23.60;15.23;;;1.30;99.90;;;;;;4924589;28;20670;-71
2022/12/19 10:36:10;;;;;;;29.10;16.08;;;1.20;99.90;;;;;;4934412;28;20602;-71
2022/12/19 10:38:54;;;;;;;25.38;15.73;;;1.20;99.90;;;;;;4926238;28;20035;-71
2022/12/19 10:41:26;;;;;;;34.00;18.58;;;1.10;99.90;;;;;;4930734;28;20527;-71
2022/12/19 10:44:04;;;;;;;36.55;18.25;;;1.20;99.90;;;;;;4939745;28;20801;-71
2022/12/19 10:46:50;;;;;;;27.48;15.75;;;1.20;99.90;;;;;;4939567;28;20126;-71
2022/12/19 10:49:17;;;;;;;25.27;14.63;;;1.40;99.90;;;;;;4930885;28;20087;-71
2022/12/19 10:52:01;;;;;;;27.20;14.10;;;1.20;99.90;;;;;;4928953;28;20051;-71
2022/12/19 10:54:38;;;;;;;30.20;14.77;;;1.20;99.90;;;;;;4936586;28;20045;-71
2022/12/19 10:57:28;;;;;;;29.90;17.80;;;1.30;99.90;;;;;;4937670;28;20154;-71
2022/12/19 11:00:02;;;;;;;24.33;14.90;;;1.30;99.90;;;;;;4928248;28;20070;-70
2022/12/19 11:02:42;;;;;;;27.38;15.85;;;1.30;99.90;;;;;;4931898;28;20086;-71
2022/12/19 11:05:49;;;;;;;31.25;17.88;;;1.30;99.90;;;;;;4937448;28;20574;-70
2022/12/19 11:08:14;;;;;;;24.67;14.80;;;1.40;99.90;;;;;;4937732;28;20039;-70
2022/12/19 11:10:46;;;;;;;29.90;17.48;;;1.40;99.90;;;;;;4940181;28;20050;-70
2022/12/19 11:13:26;;;;;;;32.10;18.40;;;1.40;99.90;;;;;;4942038;28;20570;-70
2022/12/19 11:15:54;;;;;;;28.52;16.45;;;1.40;99.90;;;;;;4941229;28;20039;-70
2022/12/19 11:18:20;;;;;;;28.92;17.33;;;1.40;99.90;;;;;;4938376;28;20173;-70
2022/12/19 11:21:05;;;;;;;33.00;17.65;;;1.40;99.90;;;;;;4934234;28;20035;-70
2022/12/19 11:23:32;;;;;;;32.60;20.23;;;1.50;99.90;;;;;;4934725;28;20114;-72
2022/12/19 11:26:04;;;;;;;30.67;16.58;;;1.60;99.90;;;;;;4938422;28;20046;-69
2022/12/19 11:28:38;;;;;;;32.00;19.20;;;1.70;99.90;;;;;;4923194;28;20044;-72
2022/12/19 11:31:15;;;;;;;31.88;18.05;;;1.80;99.90;;;;;;4939371;28;20034;-72
2022/12/19 11:33:45;;;;;;;28.42;16.85;;;1.70;99.90;;;;;;4933244;28;20039;-70
2022/12/19 11:36:36;;;;;;;29.60;17.13;;;1.60;99.90;;;;;;4934252;28;20046;-70
2022/12/19 11:39:04;;;;;;;38.80;18.40;;;1.60;99.90;;;;;;4944546;28;20504;-70
2022/12/19 11:41:45;;;;;;;27.67;15.52;;;1.60;99.90;;;;;;4938554;28;20421;-71
2022/12/19 11:44:21;;;;;;;27.73;16.83;;;1.50;99.90;;;;;;4941685;28;20039;-70
2022/12/19 11:46:55;;;;;;;30.23;16.38;;;1.50;99.90;;;;;;4919042;28;20556;-70
2022/12/19 11:49:50;;;;;;;27.70;16.48;;;1.50;99.90;;;;;;4940530;28;20053;-71
2022/12/19 11:52:34;;;;;;;29.30;16.75;;;1.40;99.90;;;;;;4938598;28;20050;-70
2022/12/19 11:55:13;;;;;;;32.42;17.55;;;1.20;99.90;;;;;;4935630;28;20050;-70
2022/12/19 11:57:40;;;;;;;30.05;16.83;;;1.20;99.90;;;;;;4937374;28;20129;-72
2022/12/19 12:00:22;;;;;;;27.63;16.83;;;1.30;99.90;;;;;;4931266;28;20074;-70
2022/12/19 12:03:06;;;;;;;30.63;18.38;;;1.30;99.90;;;;;;4927434;28;20042;-70
2022/12/19 12:05:48;;;;;;;28.05;17.35;;;1.30;99.90;;;;;;4943764;28;20040;-70
2022/12/19 12:08:13;;;;;;;;;;;1.30;99.90;;;;;;4938566;28;20032;-70
2022/12/19 12:10:52;;;;;;;29.05;17.10;;;1.40;99.90;;;;;;4939706;28;19915;-70
2022/12/19 12:13:32;;;;;;;29.70;16.02;;;1.50;99.90;;;;;;4931295;28;20408;-72
2022/12/19 12:16:10;;;;;;;25.80;16.23;;;1.40;99.90;;;;;;4929856;28;20047;-72
2022/12/19 12:18:52;;;;;;;26.92;15.82;;;1.50;99.90;;;;;;4924161;28;20371;-70
2022/12/19 12:21:31;;;;;;;31.73;19.15;;;1.40;99.90;;;;;;4931389;28;20065;-71
2022/12/19 12:24:05;;;;;;;28.92;16.55;;;1.40;99.90;;;;;;4936945;28;20036;-71
2022/12/19 12:26:44;;;;;;;30.52;16.88;;;1.50;99.90;;;;;;4921805;28;20099;-71
2022/12/19 12:29:44;;;;;;;34.08;18.60;;;1.60;99.90;;;;;;4938227;28;20675;-71
2022/12/19 12:32:35;;;;;;;26.13;15.77;;;1.60;99.90;;;;;;4912733;28;20047;-71
2022/12/19 12:35:06;;;;;;;33.58;16.52;;;1.50;99.90;;;;;;4931501;28;20036;-71
2022/12/19 12:37:51;;;;;;;28.65;16.02;;;1.50;99.90;;;;;;4924962;28;20084;-71
2022/12/19 12:40:41;;;;;;;33.42;20.05;;;1.60;99.90;;;;;;4935246;28;20102;-71
2022/12/19 12:43:19;;;;;;;32.17;18.25;;;1.60;99.90;;;;;;4931748;28;20035;-71
2022/12/19 12:45:44;;;;;;;29.88;17.70;;;1.60;99.90;;;;;;4935722;28;20047;-70
2022/12/19 12:48:34;;;;;;;30.02;17.10;;;1.50;99.90;;;;;;4919603;28;20502;-70
2022/12/19 12:51:00;;;;;;;30.08;15.68;;;1.50;99.90;;;;;;4924705;28;20548;-70
2022/12/19 12:53:32;;;;;;;29.33;15.82;;;1.40;99.90;;;;;;4928338;28;20443;-70
2022/12/19 12:56:02;;;;;;;29.70;17.05;;;1.40;99.90;;;;;;4932147;28;20110;-71
2022/12/19 12:58:50;;;;;;;30.33;17.60;;;1.40;99.90;;;;;;4939370;28;20045;-70
2022/12/19 13:01:28;;;;;;;36.42;20.50;;;1.50;99.90;;;;;;4933679;28;20089;-70
2022/12/19 13:04:19;;;;;;;35.95;20.98;;;1.50;99.90;;;;;;4927296;28;20237;-70
2022/12/19 13:06:50;;;;;;;34.28;20.08;;;1.50;99.90;;;;;;4908860;28;20079;-70
2022/12/19 13:09:28;;;;;;;32.88;18.60;;;1.60;99.90;;;;;;4923898;28;20533;-70